Latest Weather Observations for Colpoys Point

IDW60901

Issued at 12:51 pm WST Thursday 28 January 2021 (issued every 10 minutes, with the page automatically refreshed every 10 minutes)

About weather observations | Map of Perth area stations | Latest observations for Perth area | Other Formats
Station Details ID: 009255 Name: COLPOYS POINT Lat: -32.23 Lon: 115.70 Height: 3.0 m
Data from the previous 72 hours. | See also: Recent months for locations in Western Australia
Date/Time
WST
Temp
°C
App
Temp
°C
Dew
Point
°C
Rel
Hum
%
Delta-T
°C
Wind Press
QNH
hPa
Press
MSL
hPa
Rain since
9am
mm
Dir  Spd
km/h
Gust
km/h
Spd
kts
Gust
kts
28/12:32pm - - - - - SSW 24 46 13 25 - - -
28/12:30pm - - - - - S 20 43 11 23 - - -
28/12:00pm - - - - - SSE 9 13 5 7 - - -
28/11:30am - - - - - SE 11 17 6 9 - - -
28/11:00am - - - - - SE 13 22 7 12 - - -
28/10:30am - - - - - SE 15 20 8 11 - - -
28/10:00am - - - - - SE 17 19 9 10 - - -
28/09:30am - - - - - SE 19 26 10 14 - - -
28/09:00am - - - - - ESE 22 28 12 15 - - -
28/08:30am - - - - - ESE 24 32 13 17 - - -
28/08:00am - - - - - SE 28 33 15 18 - - -
28/07:30am - - - - - SE 30 35 16 19 - - -
28/07:00am - - - - - SE 28 35 15 19 - - -
28/06:30am - - - - - SSE 26 32 14 17 - - -
28/06:00am - - - - - SSE 24 30 13 16 - - -
28/05:30am - - - - - SE 24 30 13 16 - - -
28/05:00am - - - - - SE 24 30 13 16 - - -
28/04:30am - - - - - SE 28 33 15 18 - - -
28/04:00am - - - - - SE 30 35 16 19 - - -
28/03:30am - - - - - SE 32 37 17 20 - - -
28/03:00am - - - - - SE 32 37 17 20 - - -
28/02:30am - - - - - SE 26 32 14 17 - - -
28/02:00am - - - - - SE 30 37 16 20 - - -
28/01:30am - - - - - SE 32 37 17 20 - - -
28/01:00am - - - - - SE 26 33 14 18 - - -
28/12:30am - - - - - SE 26 32 14 17 - - -
28/12:00am - - - - - SSE 28 33 15 18 - - -
 
Date/Time
WST
Temp
°C
App
Temp
°C
Dew
Point
°C
Rel
Hum
%
Delta-T
°C
Wind Press
QNH
hPa
Press
MSL
hPa
Rain since
9am
mm
Dir  Spd
km/h
Gust
km/h
Spd
kts
Gust
kts
27/11:30pm - - - - - SSE 30 33 16 18 - - -
27/11:00pm - - - - - SSE 32 35 17 19 - - -
27/10:30pm - - - - - SSE 35 41 19 22 - - -
27/10:00pm - - - - - S 35 43 19 23 - - -
27/09:30pm - - - - - S 39 48 21 26 - - -
27/09:00pm - - - - - S 43 50 23 27 - - -
27/08:30pm - - - - - S 44 56 24 30 - - -
27/08:00pm - - - - - SSW 50 61 27 33 - - -
27/07:30pm - - - - - SSW 50 61 27 33 - - -
27/07:00pm - - - - - SSW 50 61 27 33 - - -
27/06:30pm - - - - - SSW 50 57 27 31 - - -
27/06:00pm - - - - - SSW 46 57 25 31 - - -
27/05:30pm - - - - - SSW 46 56 25 30 - - -
27/05:00pm - - - - - SW 46 56 25 30 - - -
27/04:30pm - - - - - SW 44 56 24 30 - - -
27/04:00pm - - - - - SW 41 52 22 28 - - -
27/03:30pm - - - - - SSW 43 52 23 28 - - -
27/03:00pm - - - - - SSW 43 52 23 28 - - -
27/02:30pm - - - - - SSW 43 52 23 28 - - -
27/02:00pm - - - - - SSW 41 50 22 27 - - -
27/01:30pm - - - - - SSW 39 46 21 25 - - -
27/01:00pm - - - - - SW 37 46 20 25 - - -
27/12:30pm - - - - - SSW 37 46 20 25 - - -
27/12:00pm - - - - - SSW 32 39 17 21 - - -
27/11:30am - - - - - SSW 28 33 15 18 - - -
27/11:00am - - - - - SSW 33 39 18 21 - - -
27/10:30am - - - - - SSW 30 33 16 18 - - -
27/10:00am - - - - - S 28 32 15 17 - - -
27/09:30am - - - - - S 20 28 11 15 - - -
27/09:00am - - - - - SE 17 22 9 12 - - -
27/08:30am - - - - - SSE 30 37 16 20 - - -
27/08:17am - - - - - S 20 33 11 18 - - -
27/08:00am - - - - - SSE 11 15 6 8 - - -
27/07:30am - - - - - ENE 7 9 4 5 - - -
27/07:00am - - - - - SE 2 7 1 4 - - -
27/06:30am - - - - - ESE 9 11 5 6 - - -
27/06:00am - - - - - SE 13 15 7 8 - - -
27/05:30am - - - - - ESE 15 17 8 9 - - -
27/05:00am - - - - - ESE 15 19 8 10 - - -
27/04:30am - - - - - ESE 15 19 8 10 - - -
27/04:00am - - - - - SE 17 20 9 11 - - -
27/03:30am - - - - - SSE 19 20 10 11 - - -
27/03:00am - - - - - SSE 20 26 11 14 - - -
27/02:30am - - - - - SE 22 26 12 14 - - -
27/02:00am - - - - - SSE 22 28 12 15 - - -
27/01:30am - - - - - SSW 30 35 16 19 - - -
27/01:00am - - - - - SSW 30 39 16 21 - - -
27/12:30am - - - - - SSW 30 35 16 19 - - -
27/12:00am - - - - - SSW 30 35 16 19 - - -
 
Date/Time
WST
Temp
°C
App
Temp
°C
Dew
Point
°C
Rel
Hum
%
Delta-T
°C
Wind Press
QNH
hPa
Press
MSL
hPa
Rain since
9am
mm
Dir  Spd
km/h
Gust
km/h
Spd
kts
Gust
kts
26/11:30pm - - - - - SSW 30 35 16 19 - - -
26/11:00pm - - - - - SSW 35 41 19 22 - - -
26/10:30pm - - - - - SSW 35 43 19 23 - - -
26/10:00pm - - - - - SSW 33 41 18 22 - - -
26/09:30pm - - - - - SSW 35 43 19 23 - - -
26/09:00pm - - - - - SSW 32 39 17 21 - - -
26/08:30pm - - - - - SW 32 39 17 21 - - -
26/08:00pm - - - - - SW 33 41 18 22 - - -
26/07:30pm - - - - - SW 32 37 17 20 - - -
26/07:00pm - - - - - SW 33 41 18 22 - - -
26/06:30pm - - - - - SW 33 41 18 22 - - -
26/06:00pm - - - - - SW 33 39 18 21 - - -
26/05:30pm - - - - - SW 35 46 19 25 - - -
26/05:00pm - - - - - SW 37 46 20 25 - - -
26/04:30pm - - - - - SW 39 48 21 26 - - -
26/04:00pm - - - - - SW 39 50 21 27 - - -
26/03:30pm - - - - - SW 39 48 21 26 - - -
26/03:00pm - - - - - SW 35 43 19 23 - - -
26/02:30pm - - - - - SW 35 43 19 23 - - -
26/02:00pm - - - - - WSW 33 44 18 24 - - -
26/01:30pm - - - - - SW 28 35 15 19 - - -
26/01:00pm - - - - - SW 24 28 13 15 - - -
26/12:30pm - - - - - SW 26 32 14 17 - - -
26/12:00pm - - - - - SW 24 32 13 17 - - -
26/11:30am - - - - - WSW 22 32 12 17 - - -
26/11:00am - - - - - WSW 19 30 10 16 - - -
26/10:30am - - - - - WSW 17 20 9 11 - - -
26/10:00am - - - - - SSE 4 9 2 5 - - -
26/09:30am - - - - - SSE 6 7 3 4 - - -
26/09:00am - - - - - S 4 7 2 4 - - -
26/08:30am - - - - - SE 9 11 5 6 - - -
26/08:00am - - - - - SE 9 13 5 7 - - -
26/07:30am - - - - - SSE 11 13 6 7 - - -
26/07:00am - - - - - ESE 13 15 7 8 - - -
26/06:30am - - - - - ESE 17 19 9 10 - - -
26/06:00am - - - - - ESE 19 20 10 11 - - -
26/05:30am - - - - - ESE 17 20 9 11 - - -
26/05:00am - - - - - ESE 19 22 10 12 - - -
26/04:30am - - - - - ESE 22 26 12 14 - - -
26/04:00am - - - - - ESE 19 24 10 13 - - -
26/03:30am - - - - - ESE 19 24 10 13 - - -
26/03:00am - - - - - ESE 15 19 8 10 - - -
26/02:30am - - - - - SE 13 17 7 9 - - -
26/02:00am - - - - - ESE 17 22 9 12 - - -
26/01:30am - - - - - SE 20 26 11 14 - - -
26/01:00am - - - - - SE 15 19 8 10 - - -
26/12:30am - - - - - SSE 22 28 12 15 - - -
26/12:00am - - - - - S 28 32 15 17 - - -
 
Date/Time
WST
Temp
°C
App
Temp
°C
Dew
Point
°C
Rel
Hum
%
Delta-T
°C
Wind Press
QNH
hPa
Press
MSL
hPa
Rain since
9am
mm
Dir  Spd
km/h
Gust
km/h
Spd
kts
Gust
kts
25/11:30pm - - - - - SSW 26 33 14 18 - - -
25/11:00pm - - - - - SSW 30 35 16 19 - - -
25/10:30pm - - - - - SW 28 33 15 18 - - -
25/10:00pm - - - - - SW 28 35 15 19 - - -
25/09:30pm - - - - - SSW 30 35 16 19 - - -
25/09:00pm - - - - - SSW 32 39 17 21 - - -
25/08:30pm - - - - - SSW 35 41 19 22 - - -
25/08:00pm - - - - - SSW 33 39 18 21 - - -
25/07:30pm - - - - - SSW 35 41 19 22 - - -
25/07:00pm - - - - - SSW 33 41 18 22 - - -
25/06:30pm - - - - - SW 35 41 19 22 - - -
25/06:00pm - - - - - SW 35 44 19 24 - - -
25/05:30pm - - - - - SW 33 39 18 21 - - -
25/05:00pm - - - - - SW 33 39 18 21 - - -
25/04:30pm - - - - - SW 32 39 17 21 - - -
25/04:00pm - - - - - SW 32 37 17 20 - - -
25/03:30pm - - - - - SW 33 39 18 21 - - -
25/03:00pm - - - - - SW 32 39 17 21 - - -
25/02:30pm - - - - - WSW 32 37 17 20 - - -
25/02:00pm - - - - - WSW 32 39 17 21 - - -
25/01:30pm - - - - - WSW 28 37 15 20 - - -
25/01:00pm - - - - - WSW 26 32 14 17 - - -

Latest Capital City Observations: Canberra | Sydney | Melbourne | Brisbane | Adelaide | Perth | Hobart | Darwin

Other formats

Comma delimited format used in spreadsheet applications
http://www.bom.gov.au/fwo/IDW60901/IDW60901.99255.axf

JavaScript Object Notation format (JSON) in row-major order
http://www.bom.gov.au/fwo/IDW60901/IDW60901.99255.json

Data quality

Most of these data are generated automatically and are frequently updated. Quality checks on data are not normally performed. It is possible for incorrect values to appear. Refer to information at About Latest Weather Observations and please check the disclaimer before using these data.